createdAt,value
2022-11-24T00:02:31.549Z,75.18
2022-11-24T00:05:01.728Z,75.25
2022-11-24T00:07:31.903Z,75.77
2022-11-24T00:10:01.989Z,75.63
2022-11-24T00:12:34.976Z,75.97
2022-11-24T00:15:05.224Z,75.60
2022-11-24T00:17:35.314Z,75.39
2022-11-24T00:20:05.877Z,75.17
2022-11-24T00:22:36.041Z,75.06
2022-11-24T00:25:06.664Z,75.14
2022-11-24T00:27:39.294Z,75.21
2022-11-24T00:30:10.692Z,74.74
2022-11-24T00:32:40.878Z,75.34
2022-11-24T00:35:10.991Z,75.09
2022-11-24T00:37:41.028Z,75.18
2022-11-24T00:40:13.902Z,74.95
2022-11-24T00:42:46.603Z,74.81
2022-11-24T00:45:16.796Z,74.52
2022-11-24T00:47:46.776Z,73.91
2022-11-24T00:50:17.033Z,74.34
2022-11-24T00:52:47.000Z,74.39
2022-11-24T00:55:17.062Z,74.47
2022-11-24T00:57:49.761Z,74.36
2022-11-24T01:00:21.026Z,74.65
2022-11-24T01:02:51.204Z,74.55
2022-11-24T01:05:21.502Z,74.64
2022-11-24T01:07:51.652Z,74.50
2022-11-24T01:10:22.571Z,74.82
2022-11-24T01:12:55.256Z,75.05
2022-11-24T01:15:25.476Z,75.31
2022-11-24T01:17:56.217Z,75.00
2022-11-24T01:20:26.823Z,75.52
2022-11-24T01:22:56.874Z,75.34
2022-11-24T01:25:27.024Z,75.53
2022-11-24T01:27:59.653Z,75.79
2022-11-24T01:30:29.796Z,75.48
2022-11-24T01:32:59.851Z,75.95
2022-11-24T01:35:29.913Z,75.69
2022-11-24T01:37:59.974Z,75.53
2022-11-24T01:40:34.449Z,75.82
2022-11-24T01:43:18.880Z,75.87
2022-11-24T01:45:51.134Z,76.10
2022-11-24T01:48:27.890Z,76.17
2022-11-24T01:51:06.625Z,75.83
2022-11-24T01:53:36.917Z,76.29
2022-11-24T01:56:08.440Z,76.36
2022-11-24T01:58:42.928Z,75.89
2022-11-24T02:01:13.823Z,76.21
2022-11-24T02:03:46.546Z,76.07
2022-11-24T02:06:19.632Z,76.12
2022-11-24T02:08:54.897Z,76.27
2022-11-24T02:11:27.065Z,76.62
2022-11-24T02:14:00.566Z,76.75
2022-11-24T02:16:30.798Z,76.71
2022-11-24T02:19:01.026Z,76.35
2022-11-24T02:21:31.399Z,76.78
2022-11-24T02:24:08.543Z,76.53
2022-11-24T02:26:45.823Z,76.66
2022-11-24T02:29:17.130Z,77.19
2022-11-24T02:31:50.473Z,77.07
2022-11-24T02:34:20.636Z,77.16
2022-11-24T02:36:50.697Z,77.60
2022-11-24T02:39:21.399Z,77.14
2022-11-24T02:41:58.838Z,77.52
2022-11-24T02:44:33.572Z,77.66
2022-11-24T02:47:08.279Z,77.21
2022-11-24T02:49:39.152Z,77.57
2022-11-24T02:52:09.523Z,77.63
2022-11-24T02:54:39.628Z,77.86
2022-11-24T02:57:12.983Z,77.66
2022-11-24T02:59:43.340Z,77.82
2022-11-24T03:02:13.330Z,78.07
2022-11-24T03:04:44.751Z,78.29
2022-11-24T03:07:14.949Z,77.92
2022-11-24T03:09:45.810Z,78.29
2022-11-24T03:12:18.551Z,78.36
2022-11-24T03:14:48.636Z,78.24
2022-11-24T03:17:18.658Z,78.48
2022-11-24T03:19:48.712Z,78.37
2022-11-24T03:22:18.733Z,78.48
2022-11-24T03:24:48.909Z,78.52
2022-11-24T03:27:21.812Z,78.68
2022-11-24T03:29:51.822Z,78.64
2022-11-24T03:32:21.954Z,79.03
2022-11-24T03:34:52.070Z,79.05
2022-11-24T03:37:22.700Z,79.23
2022-11-24T03:39:52.840Z,79.26
2022-11-24T03:42:25.671Z,79.12
2022-11-24T03:44:55.829Z,79.45
2022-11-24T03:47:25.801Z,78.81
2022-11-24T03:49:55.897Z,79.30
2022-11-24T03:52:26.784Z,79.17
2022-11-24T03:54:56.986Z,79.13
2022-11-24T03:57:29.637Z,78.81
2022-11-24T03:59:59.708Z,78.96
2022-11-24T04:02:29.800Z,79.22
2022-11-24T04:04:59.864Z,79.04
2022-11-24T04:07:30.026Z,78.98
2022-11-24T04:10:00.072Z,79.21
2022-11-24T04:12:45.011Z,79.21
2022-11-24T04:15:18.395Z,79.00
2022-11-24T04:17:49.465Z,79.41
2022-11-24T04:20:20.571Z,79.34
2022-11-24T04:22:52.251Z,79.54
2022-11-24T04:25:22.551Z,79.32
2022-11-24T04:27:57.759Z,79.46
2022-11-24T04:30:29.413Z,79.33
2022-11-24T04:32:59.943Z,79.38
2022-11-24T04:35:29.993Z,79.47
2022-11-24T04:38:00.096Z,79.93
2022-11-24T04:40:30.254Z,79.86
2022-11-24T04:43:02.932Z,79.35
2022-11-24T04:45:32.961Z,79.59
2022-11-24T04:48:02.936Z,79.61
2022-11-24T04:50:33.123Z,79.69
2022-11-24T04:53:03.216Z,79.42
2022-11-24T04:55:33.307Z,79.35
2022-11-24T04:58:06.365Z,79.90
2022-11-24T05:00:36.417Z,80.06
2022-11-24T05:03:06.704Z,79.88
2022-11-24T05:05:36.814Z,79.98
2022-11-24T05:08:07.840Z,80.16
2022-11-24T05:10:38.012Z,80.10
2022-11-24T05:13:14.221Z,80.09
2022-11-24T05:15:45.041Z,80.15
2022-11-24T05:18:16.826Z,79.79
2022-11-24T05:20:47.583Z,80.26
2022-11-24T05:23:18.246Z,79.91
2022-11-24T05:25:48.356Z,80.07
2022-11-24T05:28:21.910Z,80.13
2022-11-24T05:30:52.029Z,80.22
2022-11-24T05:33:23.210Z,80.21
2022-11-24T05:35:53.792Z,80.03
2022-11-24T05:38:24.201Z,80.47
2022-11-24T05:40:54.441Z,80.42
2022-11-24T05:43:27.131Z,80.31
2022-11-24T05:45:57.170Z,80.15
2022-11-24T05:48:27.415Z,80.18
2022-11-24T05:50:58.589Z,80.04
2022-11-24T05:53:28.847Z,80.07
2022-11-24T05:55:58.897Z,80.53
2022-11-24T05:58:31.565Z,80.63
2022-11-24T06:01:04.387Z,80.60
2022-11-24T06:03:34.453Z,80.65
2022-11-24T06:06:04.631Z,80.31
2022-11-24T06:08:36.600Z,80.37
2022-11-24T06:11:17.423Z,80.14
2022-11-24T06:13:53.068Z,80.41
2022-11-24T06:16:23.487Z,80.39
2022-11-24T06:18:53.556Z,80.13
2022-11-24T06:21:23.739Z,80.38
2022-11-24T06:23:53.770Z,80.48
2022-11-24T06:26:23.876Z,80.44
2022-11-24T06:28:56.666Z,81.09
2022-11-24T06:31:27.152Z,80.66
2022-11-24T06:33:57.442Z,80.71
2022-11-24T06:36:28.124Z,80.92
2022-11-24T06:39:00.709Z,80.82
2022-11-24T06:41:31.170Z,80.59
2022-11-24T06:44:05.843Z,80.86
2022-11-24T06:46:35.912Z,81.32
2022-11-24T06:49:06.021Z,81.19
2022-11-24T06:51:36.179Z,81.26
2022-11-24T06:54:09.576Z,80.95
2022-11-24T06:56:39.727Z,81.31
2022-11-24T06:59:20.344Z,81.37
2022-11-24T07:01:50.682Z,80.98
2022-11-24T07:04:20.825Z,81.20
2022-11-24T07:06:50.854Z,80.97
2022-11-24T07:09:20.934Z,81.08
2022-11-24T07:11:51.003Z,80.46
2022-11-24T07:14:23.619Z,80.88
2022-11-24T07:16:53.772Z,80.71
2022-11-24T07:19:27.373Z,80.74
2022-11-24T07:21:59.088Z,80.56
2022-11-24T07:24:29.141Z,80.92
2022-11-24T07:26:59.205Z,80.72
2022-11-24T07:29:31.953Z,80.68
2022-11-24T13:59:35.368Z,95.00
2022-11-24T14:02:22.475Z,91.47
2022-11-24T14:04:53.253Z,89.64
2022-11-24T14:07:23.770Z,88.33
2022-11-24T14:09:55.270Z,87.51
2022-11-24T14:12:26.889Z,87.55
2022-11-24T14:15:23.404Z,86.33
2022-11-24T14:17:53.919Z,86.66
2022-11-24T14:20:27.253Z,86.63
2022-11-24T14:22:57.687Z,86.72
2022-11-24T14:25:35.635Z,86.39
2022-11-24T14:28:05.739Z,85.76
2022-11-24T14:30:38.469Z,85.00
2022-11-24T14:33:16.063Z,85.04
2022-11-24T14:35:47.629Z,84.99
2022-11-24T14:38:18.007Z,85.02
2022-11-24T14:40:49.870Z,84.22
2022-11-24T14:43:26.393Z,84.13
2022-11-24T14:46:02.091Z,84.00
2022-11-24T14:48:34.521Z,83.88
2022-11-24T14:51:11.559Z,84.06
2022-11-24T14:53:44.870Z,83.95
2022-11-24T14:56:26.613Z,84.17
2022-11-24T14:58:57.945Z,83.93
2022-11-24T15:01:37.797Z,84.00
2022-11-24T15:04:46.289Z,83.93
2022-11-24T15:07:19.483Z,83.54
2022-11-24T15:09:58.177Z,83.54
2022-11-24T15:12:31.657Z,83.28
2022-11-24T15:15:04.901Z,83.60
2022-11-24T15:17:37.956Z,83.36
2022-11-24T15:20:13.492Z,83.78
2022-11-24T15:22:46.592Z,83.76
2022-11-24T15:25:37.688Z,83.65
2022-11-24T15:28:08.052Z,83.24
2022-11-24T15:30:39.732Z,83.25
2022-11-24T15:33:19.600Z,83.18
2022-11-24T15:35:50.238Z,82.95
2022-11-24T15:38:21.215Z,83.00
2022-11-24T15:40:54.988Z,82.68
2022-11-24T15:43:32.119Z,82.94
2022-11-24T15:46:03.739Z,83.54
2022-11-24T15:48:36.493Z,83.72
2022-11-24T15:51:12.666Z,83.51
2022-11-24T15:53:49.507Z,83.59
2022-11-24T15:56:25.875Z,83.65
2022-11-24T15:58:56.070Z,83.55
2022-11-24T16:01:30.113Z,83.17
2022-11-24T16:04:02.631Z,82.86
2022-11-24T16:06:35.881Z,83.47
2022-11-24T16:09:06.109Z,83.26
2022-11-24T16:11:36.187Z,83.28
2022-11-24T16:14:06.281Z,83.12
2022-11-24T16:16:36.557Z,82.97
2022-11-24T16:19:09.340Z,82.80
2022-11-24T16:21:39.472Z,82.83
2022-11-24T16:24:10.391Z,82.65
2022-11-24T16:26:40.555Z,82.57
2022-11-24T16:29:10.633Z,82.70
2022-11-24T16:31:43.553Z,82.90
2022-11-24T16:34:16.296Z,82.76
2022-11-24T16:36:46.469Z,83.41
2022-11-24T16:39:16.678Z,83.16
2022-11-24T16:41:46.801Z,83.08
2022-11-24T16:44:20.035Z,82.84
2022-11-24T16:46:50.156Z,82.67
2022-11-24T16:49:23.103Z,82.94
2022-11-24T16:51:53.256Z,83.29
2022-11-24T16:54:23.393Z,83.35
2022-11-24T16:56:53.639Z,83.08
2022-11-24T16:59:23.856Z,83.34
2022-11-24T17:01:54.403Z,83.64
2022-11-24T17:04:27.267Z,83.45
2022-11-24T17:06:58.532Z,83.41
2022-11-24T17:09:28.804Z,83.58
2022-11-24T17:11:58.744Z,82.87
2022-11-24T17:14:28.816Z,82.61
2022-11-24T17:16:58.913Z,82.69
2022-11-24T17:19:31.958Z,82.36
2022-11-24T17:22:01.999Z,82.34
2022-11-24T17:24:32.330Z,81.69
2022-11-24T17:27:02.608Z,81.65
2022-11-24T17:29:33.088Z,81.72
2022-11-24T17:32:03.297Z,81.05
2022-11-24T17:34:36.253Z,81.05
2022-11-24T17:37:06.651Z,81.36
2022-11-24T17:39:36.965Z,81.76
2022-11-24T17:42:07.595Z,81.73
2022-11-24T17:44:37.825Z,81.86
2022-11-24T17:47:10.885Z,81.80
2022-11-24T17:49:46.559Z,82.25
2022-11-24T17:52:18.053Z,82.32
2022-11-24T17:54:48.219Z,82.28
2022-11-24T17:57:18.271Z,82.12
2022-11-24T17:59:48.566Z,82.41
2022-11-24T18:02:18.712Z,81.95
2022-11-24T18:04:51.557Z,82.40
2022-11-24T18:07:21.875Z,81.77
2022-11-24T18:09:52.156Z,81.67
2022-11-24T18:12:22.259Z,81.65
2022-11-24T18:14:52.388Z,81.74
2022-11-24T18:17:22.901Z,82.02
2022-11-24T18:19:55.855Z,81.82
2022-11-24T18:22:49.907Z,82.12
2022-11-24T18:25:16.219Z,82.20
2022-11-24T18:27:46.378Z,82.46
2022-11-24T18:30:17.223Z,81.97
2022-11-24T18:32:47.333Z,81.93
2022-11-24T18:35:20.115Z,82.00
2022-11-24T18:37:50.254Z,82.21
2022-11-24T18:40:20.621Z,82.30
2022-11-24T18:42:52.760Z,82.37
2022-11-24T18:45:22.854Z,82.21
2022-11-24T18:47:53.237Z,82.15
2022-11-24T18:50:26.170Z,82.22
2022-11-24T18:52:59.356Z,82.21
2022-11-24T18:55:29.510Z,81.89
2022-11-24T18:58:00.199Z,81.93
2022-11-24T19:00:30.313Z,82.19
2022-11-24T19:03:00.458Z,82.18
2022-11-24T19:05:33.189Z,82.21
2022-11-24T19:08:03.400Z,82.24
2022-11-24T19:10:33.574Z,81.67
2022-11-24T19:13:03.741Z,81.65
2022-11-24T19:15:35.374Z,81.65
2022-11-24T19:18:05.544Z,82.14
2022-11-24T19:20:41.821Z,82.12
2022-11-24T19:23:12.341Z,82.09
2022-11-24T19:25:42.423Z,81.92
2022-11-24T19:28:12.850Z,82.00
2022-11-24T19:30:45.436Z,82.23
2022-11-24T19:33:15.595Z,81.83
2022-11-24T19:35:48.238Z,82.29
2022-11-24T19:38:18.426Z,81.81
2022-11-24T19:40:48.431Z,82.00
2022-11-24T19:43:18.502Z,81.83
2022-11-24T19:45:48.645Z,82.12
2022-11-24T19:48:18.721Z,81.90
2022-11-24T19:50:51.654Z,82.39
2022-11-24T19:53:21.957Z,82.32
2022-11-24T19:55:51.977Z,81.90
2022-11-24T19:58:22.101Z,81.97
2022-11-24T20:00:53.651Z,82.16
2022-11-24T20:03:23.867Z,81.87
2022-11-24T20:06:00.395Z,82.44
2022-11-24T20:08:31.727Z,82.14
2022-11-24T20:11:06.746Z,81.94
2022-11-24T20:13:38.348Z,82.39
2022-11-24T20:16:11.401Z,82.22
2022-11-24T20:18:44.002Z,82.11
2022-11-24T20:21:19.427Z,81.66
2022-11-24T20:23:54.656Z,82.08
2022-11-24T20:26:26.536Z,81.71
2022-11-24T20:28:58.359Z,81.60
2022-11-24T20:31:30.527Z,81.64
2022-11-24T20:34:03.222Z,81.48
2022-11-24T20:36:37.628Z,82.13
2022-11-24T20:39:10.816Z,81.95
2022-11-24T20:41:41.865Z,81.52
2022-11-24T20:44:16.297Z,81.84
2022-11-24T20:46:48.280Z,81.92
2022-11-24T20:49:22.674Z,82.08
2022-11-24T20:51:57.507Z,82.19
2022-11-24T20:54:28.296Z,82.19
2022-11-24T20:56:58.525Z,81.92
2022-11-24T20:59:28.661Z,82.06
2022-11-24T21:01:59.314Z,81.79
2022-11-24T21:04:30.331Z,82.16
2022-11-24T21:07:03.826Z,82.38
2022-11-24T21:09:33.919Z,82.16
2022-11-24T21:12:09.598Z,82.22
2022-11-24T21:14:40.131Z,82.02
2022-11-24T21:17:14.328Z,82.21
2022-11-24T21:19:44.559Z,81.91
2022-11-24T21:22:17.399Z,82.46
2022-11-24T21:24:47.557Z,82.34
2022-11-24T21:27:17.687Z,82.11
2022-11-24T21:29:47.975Z,82.15
2022-11-24T21:32:18.027Z,82.39
2022-11-24T21:34:49.107Z,82.00
2022-11-24T21:37:23.582Z,82.51
2022-11-24T21:39:53.627Z,82.48
2022-11-24T21:42:23.723Z,82.40
2022-11-24T21:44:54.048Z,82.41
2022-11-24T21:47:24.217Z,82.21
2022-11-24T21:49:54.777Z,82.04
2022-11-24T21:52:27.455Z,81.95
2022-11-24T21:54:57.633Z,82.37
2022-11-24T21:57:27.674Z,82.32
2022-11-24T21:59:57.838Z,82.58
2022-11-24T22:02:27.939Z,82.45
2022-11-24T22:04:58.031Z,82.65
2022-11-24T22:07:33.719Z,82.26
2022-11-24T22:10:03.891Z,82.83
2022-11-24T22:12:35.047Z,83.08
2022-11-24T22:15:05.184Z,82.65
2022-11-24T22:17:35.405Z,82.26
2022-11-24T22:20:05.543Z,82.66
2022-11-24T22:22:39.696Z,82.99
2022-11-24T22:25:10.835Z,82.63
2022-11-24T22:27:41.055Z,82.74
2022-11-24T22:30:13.342Z,83.00
2022-11-24T22:32:43.375Z,83.36
2022-11-24T22:35:13.452Z,83.12
2022-11-24T22:37:46.194Z,83.01
2022-11-24T22:40:16.696Z,83.04
2022-11-24T22:42:46.821Z,83.08
2022-11-24T22:45:17.021Z,82.92
2022-11-24T22:47:47.088Z,83.08
2022-11-24T22:50:17.579Z,83.43
2022-11-24T22:52:50.248Z,83.09
2022-11-24T22:55:20.297Z,83.25
2022-11-24T22:57:52.295Z,83.19
2022-11-24T23:00:24.755Z,82.87
2022-11-24T23:02:54.969Z,82.92
2022-11-24T23:05:25.154Z,83.37
2022-11-24T23:07:57.987Z,83.23
2022-11-24T23:10:28.468Z,83.19
2022-11-24T23:12:58.814Z,83.43
2022-11-24T23:15:29.113Z,83.37
2022-11-24T23:17:59.377Z,83.58
2022-11-24T23:20:29.639Z,83.45
2022-11-24T23:23:02.474Z,83.51
2022-11-24T23:25:32.701Z,83.65
2022-11-24T23:28:05.810Z,83.18
2022-11-24T23:30:36.180Z,83.44
2022-11-24T23:33:06.500Z,83.47
2022-11-24T23:35:36.660Z,83.41
2022-11-24T23:38:10.156Z,83.13
2022-11-24T23:40:40.454Z,83.11
2022-11-24T23:43:13.809Z,83.04
2022-11-24T23:45:44.225Z,83.34
2022-11-24T23:48:14.664Z,83.43
2022-11-24T23:50:45.001Z,83.77
2022-11-24T23:53:17.852Z,83.32
2022-11-24T23:55:55.783Z,83.71
2022-11-24T23:58:26.151Z,83.41
